Terminal Aerodrome Forecast
Issued by NWS

Home | Current Version | Previous Version | Graphics & Text | Print | Product List | Glossary On
Versions: 1 2 3 4 5 6 7 8 9 10 11 12 13
153
FTUS43 KICT 240522
TAFHUT
TAF
KHUT 240522Z 2406/2506 15011KT P6SM SKC
     FM241500 17016G23KT P6SM SCT050
     FM250000 15010KT P6SM BKN060=

USA.gov is the U.S. government's official web portal to all federal, state and local government web resources and services.